Time;durP1;ratioP1;P1;durP2;ratioP2;P2;SDS_P1;SDS_P2;PMS_P1;PMS_P2;Temp;Humidity;BMP_temperature;BMP_pressure;BME280_temperature;BME280_humidity;BME280_pressure;Samples;Min_cycle;Max_cycle;Signal;HPM_P1;HPM_P2
2023/03/06 00:01:48;;;;;;;1.60;1.50;;;16.30;58.70;;;;;;5034151;28;20280;-60
2023/03/06 00:04:36;;;;;;;2.10;1.92;;;16.30;58.60;;;;;;5033820;28;20593;-61
2023/03/06 00:07:26;;;;;;;2.35;2.00;;;16.30;58.60;;;;;;5034138;28;20217;-60
2023/03/06 00:10:15;;;;;;;2.28;2.08;;;16.30;58.70;;;;;;5034016;28;20194;-61
2023/03/06 00:13:06;;;;;;;2.10;1.90;;;16.30;58.70;;;;;;5034178;28;20212;-60
2023/03/06 00:15:54;;;;;;;1.70;1.60;;;16.30;70.30;;;;;;5033225;28;20198;-61
2023/03/06 00:18:42;;;;;;;2.15;1.45;;;16.20;58.80;;;;;;5033474;28;20636;-60
2023/03/06 00:21:30;;;;;;;1.42;1.33;;;16.10;59.30;;;;;;5040975;28;20202;-61
2023/03/06 00:24:20;;;;;;;1.60;1.50;;;16.10;59.80;;;;;;5037952;28;20284;-60
2023/03/06 00:27:09;;;;;;;1.67;1.50;;;16.20;60.10;;;;;;5034639;28;20272;-60
2023/03/06 00:29:58;;;;;;;2.33;2.13;;;16.20;59.90;;;;;;5033710;28;20599;-61
2023/03/06 00:32:46;;;;;;;1.50;1.40;;;16.20;59.90;;;;;;5033602;28;20281;-61
2023/03/06 00:35:34;;;;;;;1.23;1.20;;;16.20;59.80;;;;;;5033392;28;20208;-61
2023/03/06 00:38:24;;;;;;;1.75;1.55;;;16.30;59.90;;;;;;5033396;28;20198;-61
2023/03/06 00:41:13;;;;;;;2.20;1.88;;;16.20;59.70;;;;;;5032837;28;20202;-61
2023/03/06 00:44:01;;;;;;;1.65;1.55;;;16.30;59.70;;;;;;5032691;28;20691;-60
2023/03/06 00:46:49;;;;;;;1.55;1.45;;;16.30;59.60;;;;;;5033142;28;20222;-60
2023/03/06 00:49:37;;;;;;;1.65;1.30;;;16.40;59.70;;;;;;5033184;28;20202;-60
2023/03/06 00:52:25;;;;;;;1.40;1.30;;;16.40;59.70;;;;;;5032894;28;20685;-61
2023/03/06 00:55:13;;;;;;;2.55;1.63;;;16.40;59.60;;;;;;5032834;28;20204;-61
2023/03/06 00:58:03;;;;;;;1.90;1.80;;;16.40;59.60;;;;;;5047392;28;20243;-61
2023/03/06 01:00:51;;;;;;;1.92;1.83;;;16.50;59.60;;;;;;5051892;28;20698;-60
2023/03/06 01:03:39;;;;;;;1.70;1.50;;;16.50;59.30;;;;;;5052181;28;20257;-61
2023/03/06 01:06:27;;;;;;;1.88;1.77;;;16.50;59.20;;;;;;5053832;28;20263;-60
2023/03/06 01:09:15;;;;;;;2.22;2.10;;;16.50;59.00;;;;;;5052229;28;20280;-61
2023/03/06 01:12:04;;;;;;;1.75;1.65;;;16.50;58.90;;;;;;5052312;28;20199;-60
2023/03/06 01:14:53;;;;;;;3.92;1.60;;;16.60;59.00;;;;;;5052876;28;20309;-61
2023/03/06 01:17:41;;;;;;;3.22;1.60;;;16.50;58.90;;;;;;5052975;28;20221;-61
2023/03/06 01:20:29;;;;;;;1.80;1.70;;;16.50;58.90;;;;;;5052751;28;20267;-61
2023/03/06 01:23:17;;;;;;;4.68;2.08;;;16.50;59.00;;;;;;5052472;28;20201;-61
2023/03/06 01:26:06;;;;;;;2.20;1.75;;;16.60;75.60;;;;;;5052321;28;20566;-61
2023/03/06 01:28:56;;;;;;;1.88;1.73;;;16.40;59.10;;;;;;5051653;28;20201;-60
2023/03/06 01:31:45;;;;;;;1.50;1.40;;;16.30;59.10;;;;;;5052346;28;20772;-61
2023/03/06 01:34:33;;;;;;;2.47;1.90;;;16.30;59.30;;;;;;5052944;28;20193;-61
2023/03/06 01:37:21;;;;;;;1.50;1.40;;;16.20;59.40;;;;;;5051486;28;20231;-61
2023/03/06 01:40:12;;;;;;;1.50;1.40;;;16.20;59.50;;;;;;5051442;28;20242;-61
2023/03/06 01:43:09;;;;;;;1.40;1.30;;;16.00;59.60;;;;;;5052981;28;20334;-60
2023/03/06 01:46:20;;;;;;;1.40;1.30;;;16.00;71.90;;;;;;5052355;28;20691;-60
2023/03/06 01:49:18;;;;;;;2.05;1.40;;;16.00;60.40;;;;;;5051612;28;20584;-61
2023/03/06 01:52:09;;;;;;;1.58;1.48;;;16.10;60.40;;;;;;5052451;28;20205;-61
2023/03/06 01:55:00;;;;;;;1.45;1.27;;;16.10;60.30;;;;;;5051731;28;20225;-60
2023/03/06 01:57:52;;;;;;;1.13;1.10;;;16.20;60.30;;;;;;5051582;28;20715;-61
2023/03/06 02:00:40;;;;;;;1.70;1.38;;;16.20;60.10;;;;;;5051571;28;20212;-61
2023/03/06 02:03:29;;;;;;;1.20;1.10;;;16.30;60.10;;;;;;5050486;28;20205;-60
2023/03/06 02:06:20;;;;;;;1.42;1.13;;;16.30;59.90;;;;;;5050976;28;20223;-61
2023/03/06 02:09:10;;;;;;;2.53;1.48;;;16.40;59.90;;;;;;5051439;28;20208;-61
2023/03/06 02:11:58;;;;;;;1.70;1.00;;;16.50;59.80;;;;;;5051215;28;20280;-61
2023/03/06 02:14:47;;;;;;;1.02;1.00;;;16.50;59.70;;;;;;5051550;28;20229;-61
2023/03/06 02:17:35;;;;;;;1.90;1.38;;;16.50;59.70;;;;;;5052406;28;20267;-60
2023/03/06 02:20:29;;;;;;;1.20;1.10;;;16.60;59.70;;;;;;5051280;28;20203;-61
2023/03/06 02:23:26;;;;;;;1.40;1.30;;;16.60;59.60;;;;;;5055916;28;20592;-61
2023/03/06 02:26:16;;;;;;;1.40;1.15;;;16.60;59.50;;;;;;5057216;28;20307;-61
2023/03/06 02:29:04;;;;;;;1.35;1.25;;;16.70;59.60;;;;;;5054676;28;20209;-60
2023/03/06 02:31:52;;;;;;;1.30;1.20;;;16.70;59.50;;;;;;5065913;28;20679;-61
2023/03/06 02:34:53;;;;;;;1.40;1.30;;;16.70;59.40;;;;;;5058205;28;20208;-62
2023/03/06 02:37:41;;;;;;;1.92;1.30;;;16.70;59.10;;;;;;5053568;28;20544;-60
2023/03/06 02:40:29;;;;;;;1.67;1.40;;;16.70;59.00;;;;;;5055621;28;20274;-61
2023/03/06 02:43:22;;;;;;;1.85;1.60;;;16.60;59.00;;;;;;5055373;28;20327;-62
2023/03/06 02:46:10;;;;;;;1.42;1.30;;;16.40;75.30;;;;;;5054513;28;20567;-60
2023/03/06 02:48:58;;;;;;;1.75;1.30;;;16.50;59.10;;;;;;5055111;28;20673;-60
2023/03/06 02:51:47;;;;;;;1.45;1.30;;;16.50;59.00;;;;;;5055530;28;20216;-60
2023/03/06 02:54:35;;;;;;;1.50;1.40;;;16.50;59.10;;;;;;5054812;28;20221;-61
2023/03/06 02:57:23;;;;;;;1.30;1.20;;;16.50;59.20;;;;;;5054572;28;20217;-61
2023/03/06 03:00:13;;;;;;;1.52;1.13;;;16.50;59.10;;;;;;5054630;28;20202;-61
2023/03/06 03:03:02;;;;;;;2.92;1.40;;;16.40;59.10;;;;;;5056555;28;20209;-60
2023/03/06 03:05:50;;;;;;;1.85;1.60;;;16.40;59.20;;;;;;5055181;28;20259;-61
2023/03/06 03:08:38;;;;;;;1.40;1.30;;;16.30;59.30;;;;;;5055601;28;20251;-61
2023/03/06 03:11:26;;;;;;;1.05;1.00;;;16.20;59.40;;;;;;5059614;28;20680;-61
2023/03/06 03:14:15;;;;;;;3.80;1.00;;;16.10;59.50;;;;;;5065449;28;20202;-61
2023/03/06 03:17:05;;;;;;;2.20;1.10;;;16.10;60.40;;;;;;5064352;28;20221;-61
2023/03/06 03:19:53;;;;;;;1.48;1.00;;;16.10;60.40;;;;;;5059675;28;20660;-60
2023/03/06 03:22:41;;;;;;;1.10;1.00;;;16.10;60.50;;;;;;5062592;28;20229;-60
2023/03/06 03:25:29;;;;;;;1.20;1.00;;;16.10;60.40;;;;;;5062195;28;20236;-60
2023/03/06 03:28:18;;;;;;;0.80;0.80;;;16.10;60.40;;;;;;5057815;28;20281;-61
2023/03/06 03:31:07;;;;;;;1.30;1.20;;;16.10;60.30;;;;;;5055875;28;20283;-61
2023/03/06 03:33:57;;;;;;;0.95;0.90;;;16.10;60.30;;;;;;5061496;28;20209;-61
2023/03/06 03:36:45;;;;;;;1.10;1.00;;;16.10;60.40;;;;;;5059968;28;20244;-61
2023/03/06 03:39:33;;;;;;;1.40;1.10;;;16.20;60.90;;;;;;5054399;28;20198;-61
2023/03/06 03:42:21;;;;;;;1.25;1.15;;;16.20;60.30;;;;;;5054353;28;20280;-61
2023/03/06 03:45:10;;;;;;;1.40;0.95;;;16.20;60.10;;;;;;5054134;28;20300;-60
2023/03/06 03:47:58;;;;;;;2.20;1.00;;;16.30;59.90;;;;;;5054888;28;20225;-60
2023/03/06 03:50:48;;;;;;;1.00;0.90;;;16.30;59.80;;;;;;5054672;28;20251;-61
2023/03/06 03:53:36;;;;;;;1.67;1.08;;;16.30;59.50;;;;;;5054837;28;20204;-60
2023/03/06 03:56:24;;;;;;;1.13;0.93;;;;;;;;;;5054106;28;20263;-61
2023/03/06 03:59:12;;;;;;;1.08;1.00;;;16.50;60.00;;;;;;5054551;28;20209;-59
2023/03/06 04:02:03;;;;;;;1.98;1.27;;;16.30;59.10;;;;;;5054175;28;20331;-60
2023/03/06 04:04:51;;;;;;;1.02;1.00;;;16.30;59.30;;;;;;5053571;28;20201;-62
2023/03/06 04:07:41;;;;;;;1.08;1.00;;;16.20;59.30;;;;;;5053432;28;20218;-61
2023/03/06 04:10:29;;;;;;;1.05;0.95;;;16.10;59.30;;;;;;5054133;28;20628;-62
2023/03/06 04:13:19;;;;;;;1.23;1.13;;;16.10;59.30;;;;;;5054341;28;20233;-61
2023/03/06 04:16:08;;;;;;;2.65;1.60;;;16.10;76.20;;;;;;5054210;28;20633;-60
2023/03/06 04:18:57;;;;;;;1.90;0.98;;;16.00;59.70;;;;;;5054040;28;20205;-60
2023/03/06 04:21:45;;;;;;;1.73;1.25;;;15.90;60.20;;;;;;5054437;28;20509;-61
2023/03/06 04:24:35;;;;;;;0.90;0.90;;;15.90;60.70;;;;;;5053483;28;20751;-60
2023/03/06 04:27:23;;;;;;;1.00;0.90;;;15.90;60.50;;;;;;5053680;28;20217;-60
2023/03/06 04:30:12;;;;;;;0.80;0.80;;;16.00;60.60;;;;;;5053663;28;20276;-60
2023/03/06 04:33:00;;;;;;;0.95;0.90;;;16.00;60.50;;;;;;5053482;28;20288;-62
2023/03/06 04:35:49;;;;;;;1.63;0.80;;;16.10;60.40;;;;;;5052696;28;20279;-62
2023/03/06 04:38:37;;;;;;;0.80;0.80;;;16.10;60.30;;;;;;5053315;28;20197;-61
2023/03/06 04:41:26;;;;;;;0.82;0.82;;;16.20;60.30;;;;;;5068689;28;20208;-61
2023/03/06 04:44:15;;;;;;;0.70;0.70;;;16.20;60.10;;;;;;5058169;28;20197;-61
2023/03/06 04:47:03;;;;;;;1.27;0.80;;;16.20;60.00;;;;;;5052470;28;20776;-61
2023/03/06 04:49:51;;;;;;;0.90;0.90;;;16.20;60.00;;;;;;5053248;28;20331;-61
2023/03/06 04:52:40;;;;;;;0.70;0.70;;;16.30;60.10;;;;;;5052390;28;20198;-63
2023/03/06 04:55:28;;;;;;;0.70;0.70;;;16.20;59.90;;;;;;5052653;28;20204;-60
2023/03/06 04:58:18;;;;;;;1.10;1.00;;;16.30;59.80;;;;;;5054008;28;20221;-60
2023/03/06 05:01:06;;;;;;;1.40;0.75;;;16.30;59.10;;;;;;5053385;28;20270;-61
2023/03/06 05:03:54;;;;;;;0.70;0.70;;;16.30;59.00;;;;;;5052343;28;20212;-61
2023/03/06 05:06:42;;;;;;;1.02;0.80;;;16.20;59.40;;;;;;5053410;28;20308;-60
2023/03/06 05:09:30;;;;;;;0.80;0.70;;;16.20;58.90;;;;;;5052399;28;20298;-61
2023/03/06 05:12:18;;;;;;;1.00;0.90;;;16.20;58.80;;;;;;5053933;28;20284;-60
2023/03/06 05:15:09;;;;;;;0.95;0.80;;;16.10;58.80;;;;;;5056038;28;20212;-61
2023/03/06 05:17:57;;;;;;;0.90;0.73;;;16.10;58.90;;;;;;5058971;28;20282;-60
2023/03/06 05:20:45;;;;;;;0.70;0.70;;;16.10;58.80;;;;;;5056740;28;20259;-61
2023/03/06 05:23:37;;;;;;;0.70;0.70;;;16.00;58.70;;;;;;5058025;28;20225;-62
2023/03/06 05:26:25;;;;;;;1.25;0.68;;;15.90;58.90;;;;;;5053294;28;20221;-60
2023/03/06 05:29:13;;;;;;;1.10;1.00;;;15.90;59.20;;;;;;5053302;28;20205;-60
2023/03/06 05:32:02;;;;;;;0.60;0.60;;;15.80;59.40;;;;;;5053315;28;20205;-60
2023/03/06 05:34:51;;;;;;;0.68;0.68;;;15.80;60.50;;;;;;5051607;28;20229;-61
2023/03/06 05:37:39;;;;;;;0.70;0.70;;;15.80;60.60;;;;;;5051970;28;20287;-60
2023/03/06 05:40:27;;;;;;;0.88;0.75;;;15.90;60.50;;;;;;5052007;28;20193;-60
2023/03/06 05:43:15;;;;;;;0.60;0.60;;;16.00;60.50;;;;;;5052082;28;20205;-60
2023/03/06 05:46:05;;;;;;;0.95;0.73;;;15.90;75.90;;;;;;5052290;28;20213;-60
2023/03/06 05:48:56;;;;;;;0.80;0.80;;;16.00;60.10;;;;;;5052385;28;20197;-61
2023/03/06 05:51:44;;;;;;;0.80;0.80;;;16.10;60.20;;;;;;5052667;28;20255;-62
2023/03/06 05:54:34;;;;;;;0.73;0.73;;;16.10;60.10;;;;;;5052196;28;20770;-60
2023/03/06 05:57:23;;;;;;;0.70;0.70;;;16.20;60.00;;;;;;5052615;28;20249;-60
2023/03/06 06:00:15;;;;;;;1.02;0.90;;;16.20;60.00;;;;;;5052391;28;20205;-61
2023/03/06 06:03:03;;;;;;;0.65;0.65;;;16.20;59.90;;;;;;5053258;28;20703;-61
2023/03/06 06:05:52;;;;;;;0.70;0.70;;;16.20;60.00;;;;;;5052488;28;20622;-61
2023/03/06 06:08:41;;;;;;;0.70;0.70;;;16.10;58.80;;;;;;5051900;28;20197;-60
2023/03/06 06:11:29;;;;;;;1.67;1.00;;;16.40;75.10;;;;;;5052486;28;20239;-61
2023/03/06 06:14:17;;;;;;;0.95;0.70;;;16.20;58.80;;;;;;5051876;28;20284;-61
2023/03/06 06:17:05;;;;;;;0.63;0.63;;;16.20;58.90;;;;;;5052505;28;20298;-61
2023/03/06 06:19:53;;;;;;;1.15;0.80;;;16.10;58.80;;;;;;5052248;28;20210;-60
2023/03/06 06:22:43;;;;;;;0.70;0.70;;;16.10;59.00;;;;;;5053458;28;20229;-61
2023/03/06 06:25:31;;;;;;;0.80;0.70;;;16.10;59.00;;;;;;5051701;28;20224;-61
2023/03/06 06:28:19;;;;;;;0.80;0.80;;;16.10;59.00;;;;;;5052425;28;20304;-61
2023/03/06 06:31:09;;;;;;;1.15;0.80;;;16.10;58.90;;;;;;5053489;28;20282;-60
2023/03/06 06:33:57;;;;;;;0.68;0.68;;;16.10;58.90;;;;;;5051275;28;20251;-60
2023/03/06 06:36:45;;;;;;;0.93;0.75;;;15.80;73.90;;;;;;5063877;22;20205;-65
2023/03/06 06:39:35;;;;;;;0.80;0.80;;;16.00;58.90;;;;;;5052014;28;20559;-66
2023/03/06 06:42:23;;;;;;;0.80;0.80;;;15.90;59.00;;;;;;5054102;28;20212;-65
2023/03/06 06:45:22;;;;;;;0.70;0.70;;;15.90;59.10;;;;;;5052299;28;20670;-65
2023/03/06 06:48:10;;;;;;;0.80;0.60;;;15.80;59.30;;;;;;5053242;28;20800;-64
2023/03/06 06:50:59;;;;;;;0.70;0.70;;;15.80;60.30;;;;;;5053958;28;20570;-65
2023/03/06 06:53:47;;;;;;;0.77;0.77;;;15.80;60.70;;;;;;5053648;28;20279;-65
2023/03/06 06:56:36;;;;;;;0.70;0.70;;;15.50;76.60;;;;;;5054101;28;20205;-64
2023/03/06 06:59:25;;;;;;;0.98;0.93;;;15.90;60.50;;;;;;5053357;28;20320;-65
2023/03/06 07:02:15;;;;;;;0.70;0.70;;;16.00;60.50;;;;;;5050692;28;20201;-64
2023/03/06 07:05:03;;;;;;;0.90;0.80;;;16.00;60.40;;;;;;5052680;28;20575;-64
2023/03/06 07:07:52;;;;;;;0.98;0.65;;;16.10;60.30;;;;;;5054158;28;20617;-65
2023/03/06 07:10:40;;;;;;;0.82;0.82;;;16.10;60.20;;;;;;5057539;28;20212;-64
2023/03/06 07:13:30;;;;;;;2.38;1.60;;;16.20;60.40;;;;;;5053685;28;20212;-65
2023/03/06 07:16:18;;;;;;;2.35;1.10;;;16.20;60.40;;;;;;5054456;28;20687;-64
2023/03/06 07:19:07;;;;;;;2.17;1.02;;;16.30;60.30;;;;;;5055257;28;20204;-63
2023/03/06 07:21:55;;;;;;;0.90;0.90;;;16.40;60.50;;;;;;5047655;28;20285;-65
2023/03/06 07:24:44;;;;;;;1.23;0.75;;;16.50;60.60;;;;;;5053968;28;20205;-64
2023/03/06 07:27:32;;;;;;;1.05;0.95;;;16.70;60.50;;;;;;5043153;28;20229;-65
2023/03/06 07:30:22;;;;;;;0.77;0.77;;;16.80;60.40;;;;;;5055648;28;20205;-64
2023/03/06 07:33:11;;;;;;;1.00;0.85;;;17.00;60.30;;;;;;5055656;28;20730;-64
2023/03/06 07:36:00;;;;;;;2.38;1.30;;;17.20;60.10;;;;;;5054539;28;20237;-65
2023/03/06 07:38:48;;;;;;;2.17;1.23;;;17.40;59.90;;;;;;5046947;28;20296;-64
2023/03/06 07:41:36;;;;;;;2.60;1.00;;;17.60;59.70;;;;;;5052869;28;20205;-64
2023/03/06 07:44:24;;;;;;;1.90;1.00;;;17.70;59.40;;;;;;5056406;28;20560;-64
2023/03/06 07:47:14;;;;;;;3.30;1.80;;;17.90;59.30;;;;;;5056072;28;20257;-65
2023/03/06 07:50:04;;;;;;;4.13;1.25;;;18.00;59.10;;;;;;5054009;28;20229;-63
2023/03/06 07:52:52;;;;;;;2.03;0.95;;;18.10;58.90;;;;;;5054707;28;20224;-65
2023/03/06 07:55:41;;;;;;;2.35;1.10;;;18.20;58.80;;;;;;5055209;28;20629;-65
2023/03/06 07:58:29;;;;;;;1.58;1.20;;;18.30;58.60;;;;;;5051724;28;20229;-66
2023/03/06 08:01:19;;;;;;;2.85;1.02;;;18.30;58.60;;;;;;5050000;28;20205;-68
2023/03/06 08:04:09;;;;;;;11.02;1.80;;;18.50;58.50;;;;;;5052646;28;20207;-67
2023/03/06 08:06:59;;;;;;;4.20;1.00;;;18.60;58.40;;;;;;5051649;28;20237;-67
2023/03/06 08:09:47;;;;;;;3.60;1.33;;;18.70;58.20;;;;;;5051250;28;20258;-67
2023/03/06 08:12:35;;;;;;;3.63;1.20;;;18.80;58.00;;;;;;5052179;28;20245;-70
2023/03/06 08:15:23;;;;;;;2.70;1.02;;;18.80;57.90;;;;;;5049442;28;20281;-70
2023/03/06 08:18:11;;;;;;;5.47;1.10;;;18.90;57.70;;;;;;5052369;28;20257;-71
2023/03/06 08:21:05;;;;;;;2.95;1.30;;;18.90;57.70;;;;;;5042771;28;20200;-71
2023/03/06 08:23:54;;;;;;;2.78;1.38;;;19.00;57.60;;;;;;5047902;28;20911;-72
2023/03/06 08:26:42;;;;;;;11.35;1.65;;;19.10;74.00;;;;;;5053477;28;20202;-70
2023/03/06 08:29:30;;;;;;;4.95;1.50;;;19.20;57.40;;;;;;5049739;28;20690;-70
2023/03/06 08:32:19;;;;;;;4.22;1.15;;;19.30;57.30;;;;;;5048316;28;20201;-70
2023/03/06 08:35:08;;;;;;;4.85;1.45;;;19.30;57.00;;;;;;5051686;28;20781;-68
2023/03/06 08:37:57;;;;;;;4.32;1.35;;;19.40;57.00;;;;;;5048148;28;20233;-71
2023/03/06 08:40:45;;;;;;;2.15;0.88;;;19.40;56.90;;;;;;5047242;28;20263;-70
2023/03/06 08:43:34;;;;;;;2.05;1.05;;;19.50;56.80;;;;;;5050515;28;20805;-70
2023/03/06 08:46:25;;;;;;;3.45;1.30;;;19.40;60.10;;;;;;5043901;28;20214;-68
2023/03/06 08:49:13;;;;;;;2.53;1.30;;;19.60;56.80;;;;;;5041646;28;20596;-70
2023/03/06 08:52:01;;;;;;;5.57;1.00;;;19.60;56.90;;;;;;5048730;28;20259;-71
2023/03/06 08:54:51;;;;;;;2.58;1.30;;;19.70;56.90;;;;;;5048583;28;20639;-68
2023/03/06 08:57:39;;;;;;;2.00;1.05;;;19.70;56.90;;;;;;5050865;28;20222;-68
2023/03/06 09:00:27;;;;;;;6.32;1.50;;;19.70;56.90;;;;;;5047195;28;20213;-68
2023/03/06 09:03:16;;;;;;;3.35;1.00;;;19.70;57.00;;;;;;5047396;28;20691;-71
2023/03/06 09:06:04;;;;;;;3.03;1.00;;;19.70;57.00;;;;;;5050961;28;20229;-69
2023/03/06 09:08:53;;;;;;;5.82;1.45;;;19.70;57.00;;;;;;5051479;28;20789;-68
2023/03/06 09:11:42;;;;;;;2.63;0.90;;;19.80;56.90;;;;;;5047669;28;20205;-67
2023/03/06 09:14:31;;;;;;;4.13;1.15;;;19.80;56.80;;;;;;5042414;28;20284;-67
2023/03/06 09:17:19;;;;;;;1.25;0.93;;;19.80;56.50;;;;;;5038161;28;20718;-71
2023/03/06 09:20:10;;;;;;;3.22;1.60;;;19.90;56.60;;;;;;5052778;28;20241;-68
2023/03/06 09:22:58;;;;;;;2.75;1.10;;;20.00;57.00;;;;;;5050624;28;20565;-69
2023/03/06 09:25:52;;;;;;;4.45;1.20;;;20.00;57.00;;;;;;5052301;28;20298;-68
2023/03/06 09:28:41;;;;;;;3.63;1.10;;;20.00;56.80;;;;;;5051791;28;20229;-66
2023/03/06 09:31:30;;;;;;;1.80;1.20;;;20.10;56.80;;;;;;5048707;28;20288;-71
2023/03/06 09:34:18;;;;;;;3.35;0.90;;;20.10;56.70;;;;;;5057354;28;20213;-71
2023/03/06 09:37:07;;;;;;;4.15;0.93;;;20.10;56.70;;;;;;5055849;28;20239;-70
2023/03/06 09:39:55;;;;;;;5.15;1.17;;;20.10;56.70;;;;;;5056062;28;20204;-69
2023/03/06 09:42:43;;;;;;;2.40;1.08;;;20.20;56.70;;;;;;5044270;28;20280;-69
2023/03/06 09:45:36;;;;;;;3.35;1.05;;;20.20;56.60;;;;;;5046277;28;20205;-71
2023/03/06 09:48:33;;;;;;;1.50;1.08;;;20.30;56.50;;;;;;5051985;28;20224;-68
2023/03/06 09:51:27;;;;;;;2.47;1.00;;;20.30;56.40;;;;;;5048655;28;20202;-69
2023/03/06 09:54:16;;;;;;;1.20;1.10;;;20.30;56.40;;;;;;5049635;28;20262;-71
2023/03/06 09:57:13;;;;;;;2.05;0.90;;;20.30;56.30;;;;;;5051038;28;20220;-69
2023/03/06 10:00:05;;;;;;;3.90;1.20;;;20.40;56.30;;;;;;5050548;28;20204;-71
2023/03/06 10:02:58;;;;;;;2.38;0.98;;;20.50;56.20;;;;;;5063491;28;20346;-68
2023/03/06 10:05:52;;;;;;;5.60;1.77;;;20.40;56.70;;;;;;5050545;28;20193;-69
2023/03/06 10:08:48;;;;;;;2.10;1.15;;;20.50;56.00;;;;;;5049551;28;20745;-69
2023/03/06 10:11:43;;;;;;;1.08;0.80;;;20.50;56.10;;;;;;5048021;28;20267;-72
2023/03/06 10:14:37;;;;;;;3.15;1.05;;;20.50;56.10;;;;;;5049158;28;20297;-69
2023/03/06 10:17:30;;;;;;;2.22;0.70;;;20.50;56.10;;;;;;5048570;28;20257;-67
2023/03/06 10:20:23;;;;;;;1.83;1.00;;;20.60;56.00;;;;;;5033284;28;20274;-68
2023/03/06 10:23:26;;;;;;;1.70;0.98;;;20.60;55.90;;;;;;5044149;28;20208;-70
2023/03/06 10:26:18;;;;;;;1.45;1.20;;;20.60;56.30;;;;;;5040893;28;20573;-66
2023/03/06 10:29:32;;;;;;;1.65;1.17;;;20.60;55.80;;;;;;5040354;28;20348;-68
2023/03/06 10:32:27;;;;;;;4.07;1.02;;;20.60;56.30;;;;;;5047103;28;20209;-69
2023/03/06 10:35:31;;;;;;;1.70;1.15;;;20.60;55.70;;;;;;5040418;28;20296;-66
2023/03/06 10:38:21;;;;;;;1.83;0.80;;;20.60;55.70;;;;;;5045181;28;20288;-70
2023/03/06 10:41:23;;;;;;;2.60;1.33;;;20.70;55.90;;;;;;5042424;28;20202;-65
2023/03/06 10:44:23;;;;;;;3.03;1.10;;;20.70;55.70;;;;;;5046692;28;20662;-67
2023/03/06 10:47:28;;;;;;;1.52;0.90;;;20.70;55.70;;;;;;5040892;28;20252;-67
2023/03/06 10:50:25;;;;;;;1.33;0.90;;;20.70;55.70;;;;;;5044625;28;20316;-68
2023/03/06 10:53:23;;;;;;;1.98;1.30;;;20.70;55.70;;;;;;5046975;28;20201;-66
2023/03/06 10:56:11;;;;;;;1.48;0.93;;;20.70;55.60;;;;;;5044883;28;20216;-67
2023/03/06 10:59:08;;;;;;;1.92;1.73;;;20.70;55.30;;;;;;5053300;28;20279;-68
2023/03/06 11:01:57;;;;;;;2.90;1.15;;;20.80;55.30;;;;;;5049776;28;20774;-70
2023/03/06 11:04:51;;;;;;;1.98;1.25;;;20.80;55.20;;;;;;5041987;28;20224;-68
2023/03/06 11:07:53;;;;;;;2.22;1.00;;;20.80;55.20;;;;;;5042393;28;20218;-64
2023/03/06 11:10:56;;;;;;;4.88;1.02;;;20.70;55.30;;;;;;5044638;28;20569;-66
2023/03/06 11:13:44;;;;;;;2.00;1.13;;;20.70;55.40;;;;;;5053225;28;20273;-68
2023/03/06 11:16:33;;;;;;;1.00;0.80;;;22.10;65.50;;;;;;5051023;28;20324;-66
2023/03/06 11:19:25;;;;;;;1.48;0.90;;;20.60;55.20;;;;;;5040777;28;20303;-69
2023/03/06 11:22:18;;;;;;;2.28;0.95;;;20.70;55.40;;;;;;5045963;28;20718;-67
2023/03/06 11:25:11;;;;;;;3.33;1.17;;;20.70;55.20;;;;;;5047271;28;20209;-70
2023/03/06 11:28:06;;;;;;;0.77;0.70;;;20.80;55.30;;;;;;5047236;28;20252;-68
2023/03/06 11:30:59;;;;;;;2.42;0.80;;;20.80;55.20;;;;;;5045988;28;20707;-70
2023/03/06 11:33:52;;;;;;;1.45;1.00;;;20.80;55.00;;;;;;5047839;28;20210;-71
2023/03/06 11:36:47;;;;;;;3.75;1.05;;;20.80;68.60;;;;;;5052232;28;20201;-69
2023/03/06 11:39:41;;;;;;;1.23;1.00;;;20.90;54.90;;;;;;5055641;28;20205;-70
2023/03/06 11:42:36;;;;;;;1.05;0.80;;;20.90;54.90;;;;;;5047545;28;20274;-66
2023/03/06 11:45:30;;;;;;;0.82;0.80;;;20.90;54.90;;;;;;5052470;28;20205;-69
2023/03/06 11:48:24;;;;;;;8.55;1.05;;;20.90;54.80;;;;;;5048567;28;20243;-67
2023/03/06 11:51:18;;;;;;;3.78;1.40;;;20.90;54.90;;;;;;5050928;28;20795;-70
2023/03/06 11:54:12;;;;;;;3.03;0.95;;;20.90;54.90;;;;;;5046591;28;20205;-68
2023/03/06 11:57:05;;;;;;;2.42;1.50;;;20.90;54.90;;;;;;5050556;28;20221;-67
2023/03/06 12:00:15;;;;;;;4.18;1.00;;;21.00;54.90;;;;;;5039905;28;20272;-69
2023/03/06 12:03:30;;;;;;;8.75;1.20;;;20.10;54.00;;;;;;5045248;28;20590;-70
2023/03/06 12:06:28;;;;;;;3.53;0.80;;;21.00;54.80;;;;;;5059934;28;20257;-69
2023/03/06 12:09:33;;;;;;;5.28;1.00;;;21.10;54.80;;;;;;5053910;28;20568;-70
2023/03/06 12:12:46;;;;;;;1.02;0.70;;;21.00;54.60;;;;;;5052574;28;20330;-67
2023/03/06 12:15:55;;;;;;;0.80;0.80;;;21.00;54.60;;;;;;5050453;28;20213;-68
2023/03/06 12:18:57;;;;;;;3.38;0.93;;;21.00;54.60;;;;;;5051589;28;20770;-67
2023/03/06 12:21:53;;;;;;;1.27;0.80;;;21.00;54.60;;;;;;5051294;28;20271;-69
2023/03/06 12:24:59;;;;;;;2.22;0.80;;;21.10;54.50;;;;;;5050424;28;20267;-65
2023/03/06 12:27:57;;;;;;;1.02;0.75;;;21.10;54.40;;;;;;5048144;28;20711;-68
2023/03/06 12:31:08;;;;;;;4.80;1.00;;;21.10;54.50;;;;;;5047692;28;20312;-67
2023/03/06 12:34:13;;;;;;;2.08;0.90;;;21.10;54.60;;;;;;5049013;28;20251;-67
2023/03/06 12:37:15;;;;;;;0.80;0.70;;;21.10;54.40;;;;;;5047322;28;20225;-68
2023/03/06 12:40:20;;;;;;;1.15;0.70;;;21.10;54.30;;;;;;5052186;28;20189;-68
2023/03/06 12:43:24;;;;;;;1.15;0.70;;;21.20;54.30;;;;;;5051880;28;20741;-68
2023/03/06 12:46:18;;;;;;;2.00;0.80;;;21.20;54.20;;;;;;5051254;28;20201;-70
2023/03/06 12:49:12;;;;;;;0.90;0.80;;;21.20;54.20;;;;;;5055987;28;20690;-71
2023/03/06 12:52:25;;;;;;;1.45;0.80;;;21.20;54.20;;;;;;5050057;28;20288;-66
2023/03/06 12:55:19;;;;;;;1.55;0.90;;;21.20;54.30;;;;;;5050120;28;20209;-68
2023/03/06 12:58:35;;;;;;;4.13;0.90;;;21.20;54.20;;;;;;5048145;28;20579;-68
2023/03/06 13:01:46;;;;;;;1.88;1.02;;;21.20;54.10;;;;;;5047399;28;20559;-68
2023/03/06 13:04:54;;;;;;;0.82;0.80;;;21.20;54.70;;;;;;5050591;28;20196;-69
2023/03/06 13:07:58;;;;;;;1.65;1.10;;;21.30;54.10;;;;;;5052000;28;20231;-68
2023/03/06 13:11:10;;;;;;;1.55;0.80;;;21.30;54.00;;;;;;5052493;28;20257;-71
2023/03/06 13:13:58;;;;;;;1.15;0.70;;;21.20;54.00;;;;;;5051602;28;20212;-70
2023/03/06 13:16:46;;;;;;;1.00;0.60;;;21.20;54.00;;;;;;5050935;28;20348;-68
2023/03/06 13:19:34;;;;;;;3.20;0.70;;;21.10;54.10;;;;;;5052008;28;20677;-68
2023/03/06 13:22:28;;;;;;;1.20;0.90;;;21.10;54.30;;;;;;5053556;28;20288;-68
2023/03/06 13:25:48;;;;;;;0.80;0.73;;;21.10;54.20;;;;;;5057170;28;20285;-68
2023/03/06 13:28:45;;;;;;;32.22;2.50;;;21.10;54.20;;;;;;5052868;28;20724;-68
2023/03/06 13:32:14;;;;;;;2.25;0.90;;;21.20;54.40;;;;;;5032979;28;20237;-68
2023/03/06 13:35:26;;;;;;;12.95;3.17;;;21.20;54.40;;;;;;5050603;28;20189;-68
2023/03/06 13:38:49;;;;;;;6.60;1.23;;;21.20;54.50;;;;;;5050169;28;20578;-68
2023/03/06 13:41:57;;;;;;;2.78;0.90;;;21.30;54.50;;;;;;5030854;28;20285;-68
2023/03/06 13:44:46;;;;;;;3.47;1.10;;;21.30;54.30;;;;;;5043564;28;20236;-70
2023/03/06 13:47:49;;;;;;;2.72;1.00;;;21.40;54.30;;;;;;5059106;28;20225;-69
2023/03/06 13:50:57;;;;;;;8.60;2.45;;;21.40;54.50;;;;;;5057061;28;20213;-66
2023/03/06 13:54:17;;;;;;;1.75;1.00;;;21.40;54.50;;;;;;5058487;28;20197;-69
2023/03/06 13:57:23;;;;;;;1.77;1.23;;;21.40;54.50;;;;;;5062976;28;20310;-72
2023/03/06 14:00:36;;;;;;;1.45;1.23;;;21.40;54.50;;;;;;5048293;28;20220;-69
2023/03/06 14:03:51;;;;;;;1.60;1.20;;;21.40;54.40;;;;;;5050765;28;20197;-67
2023/03/06 14:07:10;;;;;;;2.97;1.30;;;21.30;67.60;;;;;;5050070;28;20253;-67
2023/03/06 14:10:10;;;;;;;1.60;0.80;;;21.40;54.30;;;;;;5044256;28;20213;-70
2023/03/06 14:13:02;;;;;;;4.10;1.63;;;21.50;54.30;;;;;;5050941;28;20239;-72
2023/03/06 14:15:51;;;;;;;1.63;0.90;;;21.50;54.40;;;;;;5050133;28;20217;-70
2023/03/06 14:18:43;;;;;;;2.05;0.90;;;21.50;54.40;;;;;;5057481;28;20225;-70
2023/03/06 14:21:38;;;;;;;1.95;1.08;;;21.50;54.30;;;;;;5058417;28;20697;-70
2023/03/06 14:24:32;;;;;;;1.88;1.10;;;21.50;54.30;;;;;;5049381;28;20224;-69
2023/03/06 14:27:42;;;;;;;1.10;1.00;;;21.60;54.30;;;;;;5050322;28;20736;-68
2023/03/06 14:30:30;;;;;;;1.10;0.93;;;21.50;54.20;;;;;;5051653;28;20641;-69
2023/03/06 14:33:29;;;;;;;2.50;1.00;;;21.50;54.20;;;;;;5051033;28;20229;-69
2023/03/06 14:36:19;;;;;;;1.13;0.80;;;21.60;54.20;;;;;;5051319;28;20193;-71
2023/03/06 14:39:12;;;;;;;0.68;0.68;;;21.50;54.20;;;;;;5050105;28;20760;-69
2023/03/06 14:42:08;;;;;;;5.13;0.90;;;21.50;54.00;;;;;;5030920;28;20190;-71
2023/03/06 14:45:15;;;;;;;1.67;0.88;;;21.50;54.10;;;;;;5041715;28;20229;-71
2023/03/06 14:48:06;;;;;;;2.50;0.63;;;21.50;54.20;;;;;;5052615;28;20685;-67
2023/03/06 14:50:55;;;;;;;5.55;1.17;;;21.60;54.10;;;;;;5058634;28;20309;-67
2023/03/06 14:53:45;;;;;;;2.88;0.75;;;21.60;54.10;;;;;;5056171;28;20198;-68
2023/03/06 14:56:40;;;;;;;1.50;0.80;;;21.70;61.80;;;;;;5057101;28;20272;-67
2023/03/06 14:59:30;;;;;;;1.58;0.80;;;21.60;54.00;;;;;;5054567;28;20224;-68